createdAt,value
2019-04-30T00:02:59.739Z,64.33
2019-04-30T00:07:05.635Z,65.20
2019-04-30T00:11:10.941Z,67.00
2019-04-30T00:15:19.524Z,66.27
2019-04-30T00:19:22.182Z,66.80
2019-04-30T00:23:30.566Z,61.13
2019-04-30T00:27:32.261Z,67.13
2019-04-30T00:31:36.483Z,63.90
2019-04-30T00:35:40.717Z,66.53
2019-04-30T00:39:51.042Z,70.63
2019-04-30T00:43:51.066Z,65.70
2019-04-30T00:47:55.966Z,58.47
2019-04-30T00:52:00.273Z,61.27
2019-04-30T00:56:05.733Z,61.77
2019-04-30T01:00:11.888Z,57.10
2019-04-30T01:04:28.046Z,56.07
2019-04-30T01:08:30.274Z,55.40
2019-04-30T01:12:41.194Z,62.43
2019-04-30T01:16:40.367Z,67.63
2019-04-30T01:20:44.698Z,65.17
2019-04-30T01:24:49.630Z,60.83
2019-04-30T01:29:00.601Z,71.63
2019-04-30T01:33:01.080Z,68.50
2019-04-30T01:37:05.462Z,84.80
2019-04-30T01:41:09.694Z,85.27
2019-04-30T01:45:14.303Z,86.63
2019-04-30T01:49:20.214Z,79.13
2019-04-30T01:53:24.359Z,78.57
2019-04-30T01:57:39.025Z,81.23
2019-04-30T02:01:45.510Z,77.83
2019-04-30T02:05:49.944Z,67.43
2019-04-30T02:09:54.274Z,69.07
2019-04-30T02:13:59.134Z,70.97
2019-04-30T02:18:03.499Z,68.07
2019-04-30T02:22:09.430Z,67.87
2019-04-30T02:26:13.733Z,67.73
2019-04-30T02:30:20.751Z,73.30
2019-04-30T02:34:49.772Z,66.53
2019-04-30T02:38:54.933Z,66.50
2019-04-30T02:43:01.872Z,72.87
2019-04-30T02:47:10.011Z,66.47
2019-04-30T02:51:15.084Z,68.50
2019-04-30T02:55:25.083Z,69.97
2019-04-30T02:59:30.086Z,69.43
2019-04-30T03:03:34.614Z,68.40
2019-04-30T03:07:40.765Z,70.57
2019-04-30T03:11:44.807Z,70.27
2019-04-30T03:15:49.476Z,71.83
2019-04-30T03:20:00.260Z,66.20
2019-04-30T03:24:04.393Z,65.47
2019-04-30T03:28:09.780Z,69.77
2019-04-30T03:32:14.587Z,61.67
2019-04-30T03:36:21.656Z,61.10
2019-04-30T03:40:24.792Z,53.13
2019-04-30T03:44:31.607Z,59.47
2019-04-30T03:48:34.875Z,61.40
2019-04-30T03:52:39.475Z,61.63
2019-04-30T03:56:44.335Z,59.83
2019-04-30T04:01:19.845Z,57.43
2019-04-30T04:05:59.509Z,63.37
2019-04-30T04:10:19.555Z,65.87
2019-04-30T04:14:23.931Z,61.47
2019-04-30T04:18:30.209Z,66.00
2019-04-30T04:22:34.107Z,61.23
2019-04-30T04:26:43.365Z,66.33
2019-04-30T04:30:44.152Z,60.40
2019-04-30T04:34:50.585Z,55.73
2019-04-30T04:38:54.293Z,58.53
2019-04-30T04:43:00.384Z,61.20
2019-04-30T04:47:04.490Z,56.23
2019-04-30T04:51:19.816Z,55.50
2019-04-30T04:55:14.884Z,58.47
2019-04-30T04:59:20.078Z,63.60
2019-04-30T05:03:36.172Z,64.83
2019-04-30T05:07:40.395Z,65.97
2019-04-30T05:11:44.611Z,59.50
2019-04-30T05:15:51.290Z,66.03
2019-04-30T05:19:54.731Z,58.67
2019-04-30T05:23:59.115Z,63.37
2019-04-30T05:28:03.398Z,61.03
2019-04-30T05:32:09.481Z,58.90
2019-04-30T05:36:13.562Z,56.37
2019-04-30T05:40:18.882Z,55.43
2019-04-30T05:44:23.314Z,55.80
2019-04-30T05:48:28.628Z,60.37
2019-04-30T05:52:33.155Z,51.90
2019-04-30T05:56:39.525Z,53.07
2019-04-30T06:00:45.275Z,54.70
2019-04-30T06:04:49.527Z,50.60
2019-04-30T06:09:06.641Z,53.83
2019-04-30T06:13:26.127Z,48.83
2019-04-30T06:17:30.488Z,46.70
2019-04-30T06:21:34.745Z,45.47
2019-04-30T06:25:55.691Z,50.70
2019-04-30T06:29:45.682Z,50.90
2019-04-30T06:33:50.041Z,50.03
2019-04-30T06:37:54.275Z,45.57
2019-04-30T06:42:06.508Z,46.27
2019-04-30T06:46:05.360Z,41.47
2019-04-30T06:50:10.484Z,44.33
2019-04-30T06:54:14.713Z,43.57
2019-04-30T06:58:20.486Z,39.77
2019-04-30T07:02:24.830Z,42.30
2019-04-30T07:06:32.235Z,37.53
2019-04-30T07:10:36.697Z,41.53
2019-04-30T07:14:41.979Z,43.27
2019-04-30T07:18:46.408Z,41.50
2019-04-30T07:22:59.097Z,39.90
2019-04-30T07:27:01.048Z,39.63
2019-04-30T07:31:11.695Z,39.40
2019-04-30T07:35:09.467Z,41.47
2019-04-30T07:39:14.030Z,38.13
2019-04-30T07:43:18.985Z,39.80
2019-04-30T07:47:23.366Z,39.67
2019-04-30T07:51:30.992Z,39.97
2019-04-30T07:55:33.463Z,39.93
2019-04-30T07:59:39.538Z,38.00
2019-04-30T08:03:59.030Z,36.50
2019-04-30T08:08:20.137Z,39.27
2019-04-30T08:12:10.456Z,41.50
2019-04-30T08:16:15.353Z,47.27
2019-04-30T08:20:19.874Z,40.10
2019-04-30T08:24:24.210Z,37.43
2019-04-30T08:28:30.332Z,39.67
2019-04-30T08:32:34.304Z,36.33
2019-04-30T08:36:38.704Z,36.30
2019-04-30T08:40:53.417Z,42.53
2019-04-30T08:44:49.045Z,41.83
2019-04-30T08:48:53.786Z,46.33
2019-04-30T08:52:59.789Z,46.70
2019-04-30T08:57:04.006Z,41.93
2019-04-30T09:01:08.825Z,54.90
2019-04-30T09:05:22.422Z,55.87
2019-04-30T09:09:26.654Z,52.70
2019-04-30T09:13:30.952Z,52.53
2019-04-30T09:17:35.198Z,52.13
2019-04-30T09:21:40.209Z,55.17
2019-04-30T09:25:44.571Z,53.57
2019-04-30T09:29:49.227Z,50.50
2019-04-30T09:33:53.618Z,52.53
2019-04-30T09:38:01.413Z,50.93
2019-04-30T09:42:03.931Z,51.80
2019-04-30T09:46:17.976Z,47.20
2019-04-30T09:50:15.143Z,49.13
2019-04-30T09:54:20.206Z,49.37
2019-04-30T09:58:24.923Z,43.37
2019-04-30T10:02:29.200Z,43.13
2019-04-30T10:06:39.698Z,41.83
2019-04-30T10:10:48.600Z,38.53
2019-04-30T10:14:52.542Z,38.73
2019-04-30T10:18:56.803Z,35.83
2019-04-30T10:23:01.015Z,39.37
2019-04-30T10:27:07.039Z,30.87
2019-04-30T10:31:11.423Z,33.13
2019-04-30T10:35:15.610Z,30.77
2019-04-30T10:39:21.711Z,34.77
2019-04-30T10:43:25.935Z,31.87
2019-04-30T10:47:32.466Z,31.07
2019-04-30T10:51:36.018Z,28.90
2019-04-30T10:55:40.243Z,27.47
2019-04-30T10:59:44.460Z,28.00
2019-04-30T11:03:48.687Z,26.60
2019-04-30T11:07:52.908Z,26.83
2019-04-30T11:11:57.127Z,32.00
2019-04-30T11:16:12.166Z,29.27
2019-04-30T11:20:10.032Z,25.67
2019-04-30T11:24:14.008Z,27.27
2019-04-30T11:28:18.957Z,26.93
2019-04-30T11:32:24.403Z,27.23
2019-04-30T11:36:29.186Z,27.70
2019-04-30T11:40:37.009Z,26.83
2019-04-30T11:44:40.329Z,28.20
2019-04-30T11:48:44.736Z,25.50
2019-04-30T11:52:48.975Z,24.93
2019-04-30T11:56:53.196Z,26.83
2019-04-30T12:00:59.223Z,26.90
2019-04-30T12:05:05.235Z,26.73
2019-04-30T12:09:32.571Z,24.07
2019-04-30T12:13:36.782Z,23.83
2019-04-30T12:17:41.092Z,24.60
2019-04-30T12:21:45.311Z,19.53
2019-04-30T12:25:49.521Z,18.73
2019-04-30T12:29:53.744Z,17.43
2019-04-30T12:33:57.971Z,17.33
2019-04-30T12:38:02.214Z,19.00
2019-04-30T12:42:06.452Z,15.80
2019-04-30T12:46:10.736Z,17.23
2019-04-30T12:50:23.232Z,15.37
2019-04-30T12:54:36.251Z,14.17
2019-04-30T12:58:40.634Z,17.10
2019-04-30T13:02:44.847Z,16.03
2019-04-30T13:06:49.712Z,15.53
2019-04-30T13:10:54.761Z,14.53
2019-04-30T13:14:59.493Z,15.13
2019-04-30T13:19:03.714Z,14.40
2019-04-30T13:23:08.737Z,13.97
2019-04-30T13:27:13.035Z,13.47
2019-04-30T13:31:19.253Z,14.50
2019-04-30T13:35:23.272Z,14.37
2019-04-30T13:39:32.799Z,14.90
2019-04-30T13:43:55.059Z,13.67
2019-04-30T13:47:59.384Z,15.23
2019-04-30T14:15:54.835Z,15.00
2019-04-30T14:19:59.360Z,14.57
2019-04-30T14:24:03.607Z,14.17
2019-04-30T14:28:09.456Z,15.33
2019-04-30T14:32:13.834Z,15.30
2019-04-30T14:36:19.419Z,15.47
2019-04-30T14:40:24.299Z,16.60
2019-04-30T14:44:31.888Z,17.03
2019-04-30T14:48:41.964Z,15.63
2019-04-30T14:52:58.052Z,17.17
2019-04-30T14:57:06.651Z,16.73
2019-04-30T15:01:25.895Z,17.10
2019-04-30T15:05:39.030Z,16.30
2019-04-30T15:09:35.996Z,17.48
2019-04-30T15:13:40.220Z,16.70
2019-04-30T15:17:44.444Z,16.63
2019-04-30T15:21:48.753Z,16.80
2019-04-30T15:25:53.023Z,17.73
2019-04-30T15:29:57.474Z,18.70
2019-04-30T15:34:12.315Z,19.20
2019-04-30T15:38:16.611Z,17.23
2019-04-30T15:42:22.339Z,21.75
2019-04-30T15:46:26.612Z,20.13
2019-04-30T15:50:30.999Z,21.10
2019-04-30T15:54:35.639Z,21.37
2019-04-30T15:58:41.548Z,20.87
2019-04-30T16:02:57.297Z,21.77
2019-04-30T16:06:59.471Z,21.33
2019-04-30T16:11:25.522Z,20.27
2019-04-30T16:15:29.845Z,19.27
2019-04-30T16:19:34.133Z,19.42
2019-04-30T16:23:38.664Z,20.35
2019-04-30T16:27:43.127Z,19.30
2019-04-30T16:31:49.453Z,19.05
2019-04-30T16:35:54.902Z,19.93
2019-04-30T16:39:59.141Z,19.17
2019-04-30T16:44:03.354Z,20.23
2019-04-30T16:48:07.575Z,21.87
2019-04-30T16:52:11.795Z,60.23
2019-04-30T16:56:16.023Z,23.00
2019-04-30T17:00:20.726Z,19.45
2019-04-30T17:04:33.615Z,20.73
2019-04-30T17:08:46.415Z,19.10
2019-04-30T17:13:04.304Z,18.27
2019-04-30T17:17:08.523Z,18.30
2019-04-30T17:21:13.210Z,19.17
2019-04-30T17:25:17.450Z,17.83
2019-04-30T17:29:21.823Z,16.87
2019-04-30T17:33:26.138Z,19.30
2019-04-30T17:37:31.563Z,17.57
2019-04-30T17:41:35.959Z,21.87
2019-04-30T17:45:40.187Z,18.87
2019-04-30T17:49:44.393Z,19.40
2019-04-30T17:54:06.351Z,19.73
2019-04-30T17:58:10.727Z,20.83
2019-04-30T18:02:16.583Z,20.13
2019-04-30T18:06:20.808Z,19.50
2019-04-30T18:10:25.247Z,21.20
2019-04-30T18:14:29.485Z,20.87
2019-04-30T18:18:55.812Z,23.43
2019-04-30T18:23:19.805Z,22.00
2019-04-30T18:27:29.343Z,18.37
2019-04-30T18:31:33.316Z,19.23
2019-04-30T18:35:38.821Z,19.37
2019-04-30T18:39:43.187Z,21.10
2019-04-30T18:43:48.725Z,19.50
2019-04-30T18:47:53.099Z,19.07
2019-04-30T18:51:59.027Z,18.60
2019-04-30T18:56:03.381Z,18.03
2019-04-30T19:00:09.969Z,18.10
2019-04-30T19:04:14.202Z,19.87
2019-04-30T19:08:40.260Z,17.07
2019-04-30T19:12:51.649Z,19.60
2019-04-30T19:17:24.026Z,21.60
2019-04-30T19:21:28.457Z,17.77
2019-04-30T19:25:32.673Z,15.13
2019-04-30T19:29:36.904Z,16.17
2019-04-30T19:33:41.159Z,13.17
2019-04-30T19:37:45.404Z,14.30
2019-04-30T19:41:49.627Z,15.40
2019-04-30T19:45:53.857Z,13.57
2019-04-30T19:49:59.472Z,15.50
2019-04-30T19:54:03.802Z,15.93
2019-04-30T19:58:08.028Z,13.97
2019-04-30T20:02:12.273Z,15.03
2019-04-30T20:06:16.546Z,15.50
2019-04-30T20:10:20.911Z,13.73
2019-04-30T20:14:25.463Z,14.93
2019-04-30T20:18:29.698Z,16.20
2019-04-30T20:22:34.057Z,14.37
2019-04-30T20:26:38.276Z,19.40
2019-04-30T20:30:42.692Z,16.77
2019-04-30T20:34:48.828Z,17.37
2019-04-30T20:39:18.039Z,18.33
2019-04-30T20:43:22.339Z,17.50
2019-04-30T20:47:26.550Z,19.73
2019-04-30T20:51:30.817Z,21.37
2019-04-30T20:55:35.146Z,17.40
2019-04-30T20:59:39.413Z,16.87
2019-04-30T21:03:43.741Z,18.27
2019-04-30T21:07:48.095Z,17.13
2019-04-30T21:11:52.424Z,16.00
2019-04-30T21:15:56.776Z,18.37
2019-04-30T21:20:01.140Z,18.53
2019-04-30T21:24:05.449Z,18.50
2019-04-30T21:28:09.826Z,17.70
2019-04-30T21:32:23.014Z,21.07
2019-04-30T21:36:28.505Z,22.93
2019-04-30T21:40:32.863Z,21.87
2019-04-30T21:44:37.273Z,24.90
2019-04-30T21:48:41.474Z,33.60
2019-04-30T21:52:45.679Z,27.87
2019-04-30T21:56:49.973Z,24.27
2019-04-30T22:01:16.843Z,26.17
2019-04-30T22:05:21.127Z,23.03
2019-04-30T22:09:25.487Z,25.33
2019-04-30T22:13:29.758Z,28.10
2019-04-30T22:17:33.982Z,32.43
2019-04-30T22:21:39.600Z,32.33
2019-04-30T22:25:43.367Z,31.37
2019-04-30T22:29:47.594Z,31.43
2019-04-30T22:33:51.787Z,33.43
2019-04-30T22:37:59.252Z,34.30
2019-04-30T22:42:32.414Z,34.30
2019-04-30T22:46:36.710Z,32.93
2019-04-30T22:50:41.006Z,32.70
2019-04-30T22:54:44.831Z,32.23
2019-04-30T22:58:49.115Z,38.57
2019-04-30T23:02:57.534Z,38.80
2019-04-30T23:07:01.739Z,39.93
2019-04-30T23:11:06.056Z,32.03
2019-04-30T23:15:10.471Z,33.47
2019-04-30T23:19:14.666Z,34.13
2019-04-30T23:23:18.999Z,37.10
2019-04-30T23:27:23.324Z,36.83
2019-04-30T23:31:27.539Z,34.50
2019-04-30T23:35:31.755Z,38.23
2019-04-30T23:39:36.020Z,38.53
2019-04-30T23:43:40.198Z,41.13
2019-04-30T23:47:44.446Z,39.70
2019-04-30T23:51:50.631Z,39.17
2019-04-30T23:55:54.635Z,38.53
2019-04-30T23:59:58.856Z,45.57
